sensor_id;sensor_type;location;lat;lon;timestamp;temperature;humidity
59857;DHT22;45733;52.668;6.860;2022-09-28T00:00:54;9.30;99.90
59857;DHT22;45733;52.668;6.860;2022-09-28T00:03:20;9.30;99.90
59857;DHT22;45733;52.668;6.860;2022-09-28T00:05:46;9.20;99.90
59857;DHT22;45733;52.668;6.860;2022-09-28T00:08:12;9.30;99.90
59857;DHT22;45733;52.668;6.860;2022-09-28T00:10:38;9.40;99.90
59857;DHT22;45733;52.668;6.860;2022-09-28T00:13:08;9.40;99.90
59857;DHT22;45733;52.668;6.860;2022-09-28T00:15:33;9.40;99.90
59857;DHT22;45733;52.668;6.860;2022-09-28T00:18:00;9.40;99.90
59857;DHT22;45733;52.668;6.860;2022-09-28T00:20:26;9.40;99.90
59857;DHT22;45733;52.668;6.860;2022-09-28T00:22:51;9.40;99.90
59857;DHT22;45733;52.668;6.860;2022-09-28T00:25:17;9.40;99.90
59857;DHT22;45733;52.668;6.860;2022-09-28T00:27:49;9.30;99.90
59857;DHT22;45733;52.668;6.860;2022-09-28T00:30:15;9.30;99.90
59857;DHT22;45733;52.668;6.860;2022-09-28T00:32:41;9.20;99.90
59857;DHT22;45733;52.668;6.860;2022-09-28T00:35:08;9.30;99.90
59857;DHT22;45733;52.668;6.860;2022-09-28T00:37:34;9.40;99.90
59857;DHT22;45733;52.668;6.860;2022-09-28T00:39:59;9.30;99.90
59857;DHT22;45733;52.668;6.860;2022-09-28T00:42:26;9.30;99.90
59857;DHT22;45733;52.668;6.860;2022-09-28T00:44:56;9.30;99.90
59857;DHT22;45733;52.668;6.860;2022-09-28T00:47:35;9.40;99.90
59857;DHT22;45733;52.668;6.860;2022-09-28T00:55:24;9.30;99.90
59857;DHT22;45733;52.668;6.860;2022-09-28T00:57:55;9.30;99.90
59857;DHT22;45733;52.668;6.860;2022-09-28T01:00:21;9.20;99.90
59857;DHT22;45733;52.668;6.860;2022-09-28T01:02:47;9.20;99.90
59857;DHT22;45733;52.668;6.860;2022-09-28T01:05:14;9.20;99.90
59857;DHT22;45733;52.668;6.860;2022-09-28T01:07:42;9.20;99.90
59857;DHT22;45733;52.668;6.860;2022-09-28T01:10:09;9.10;99.90
59857;DHT22;45733;52.668;6.860;2022-09-28T01:12:35;9.10;99.90
59857;DHT22;45733;52.668;6.860;2022-09-28T01:15:01;9.00;99.90
59857;DHT22;45733;52.668;6.860;2022-09-28T01:17:54;9.00;99.90
59857;DHT22;45733;52.668;6.860;2022-09-28T01:26:32;9.10;99.90
59857;DHT22;45733;52.668;6.860;2022-09-28T01:35:41;8.90;99.90
59857;DHT22;45733;52.668;6.860;2022-09-28T01:38:07;8.90;99.90
59857;DHT22;45733;52.668;6.860;2022-09-28T01:40:35;8.80;99.90
59857;DHT22;45733;52.668;6.860;2022-09-28T01:43:12;8.80;99.90
59857;DHT22;45733;52.668;6.860;2022-09-28T01:45:59;8.80;99.90
59857;DHT22;45733;52.668;6.860;2022-09-28T01:48:37;8.80;99.90
59857;DHT22;45733;52.668;6.860;2022-09-28T01:51:10;8.70;99.90
59857;DHT22;45733;52.668;6.860;2022-09-28T01:53:47;8.70;99.90
59857;DHT22;45733;52.668;6.860;2022-09-28T01:56:21;8.70;99.90
59857;DHT22;45733;52.668;6.860;2022-09-28T01:59:12;8.80;99.90
59857;DHT22;45733;52.668;6.860;2022-09-28T02:01:43;8.70;99.90
59857;DHT22;45733;52.668;6.860;2022-09-28T02:06:57;8.60;99.90
59857;DHT22;45733;52.668;6.860;2022-09-28T02:09:34;8.60;99.90
59857;DHT22;45733;52.668;6.860;2022-09-28T02:12:12;8.50;99.90
59857;DHT22;45733;52.668;6.860;2022-09-28T02:14:40;8.50;99.90
59857;DHT22;45733;52.668;6.860;2022-09-28T02:17:09;8.30;99.90
59857;DHT22;45733;52.668;6.860;2022-09-28T02:19:36;8.40;99.90
59857;DHT22;45733;52.668;6.860;2022-09-28T02:25:27;8.40;99.90
59857;DHT22;45733;52.668;6.860;2022-09-28T02:28:05;8.30;99.90
59857;DHT22;45733;52.668;6.860;2022-09-28T02:30:35;8.30;99.90
59857;DHT22;45733;52.668;6.860;2022-09-28T02:33:40;8.30;99.90
59857;DHT22;45733;52.668;6.860;2022-09-28T02:36:08;8.30;99.90
59857;DHT22;45733;52.668;6.860;2022-09-28T02:38:36;8.20;99.90
59857;DHT22;45733;52.668;6.860;2022-09-28T02:49:04;8.30;99.90
59857;DHT22;45733;52.668;6.860;2022-09-28T03:11:24;8.20;99.90
59857;DHT22;45733;52.668;6.860;2022-09-28T03:13:52;8.20;99.90
59857;DHT22;45733;52.668;6.860;2022-09-28T03:16:19;8.30;99.90
59857;DHT22;45733;52.668;6.860;2022-09-28T03:18:45;8.20;99.90
59857;DHT22;45733;52.668;6.860;2022-09-28T03:21:12;8.30;99.90
59857;DHT22;45733;52.668;6.860;2022-09-28T03:23:39;8.40;99.90
59857;DHT22;45733;52.668;6.860;2022-09-28T03:26:07;8.50;99.90
59857;DHT22;45733;52.668;6.860;2022-09-28T03:28:33;8.50;99.90
59857;DHT22;45733;52.668;6.860;2022-09-28T03:31:01;8.50;99.90
59857;DHT22;45733;52.668;6.860;2022-09-28T03:33:27;8.50;99.90
59857;DHT22;45733;52.668;6.860;2022-09-28T03:35:53;8.50;99.90
59857;DHT22;45733;52.668;6.860;2022-09-28T03:38:19;8.50;99.90
59857;DHT22;45733;52.668;6.860;2022-09-28T03:40:56;8.50;99.90
59857;DHT22;45733;52.668;6.860;2022-09-28T03:43:24;8.50;99.90
59857;DHT22;45733;52.668;6.860;2022-09-28T03:46:00;8.60;99.90
59857;DHT22;45733;52.668;6.860;2022-09-28T03:48:31;8.60;99.90
59857;DHT22;45733;52.668;6.860;2022-09-28T03:51:00;8.60;99.90
59857;DHT22;45733;52.668;6.860;2022-09-28T03:53:26;8.50;99.90
59857;DHT22;45733;52.668;6.860;2022-09-28T03:55:54;8.50;99.90
59857;DHT22;45733;52.668;6.860;2022-09-28T03:58:21;8.60;99.90
59857;DHT22;45733;52.668;6.860;2022-09-28T04:00:48;8.60;99.90
59857;DHT22;45733;52.668;6.860;2022-09-28T04:03:14;8.50;99.90
59857;DHT22;45733;52.668;6.860;2022-09-28T04:05:51;8.50;99.90
59857;DHT22;45733;52.668;6.860;2022-09-28T04:08:17;8.50;99.90
59857;DHT22;45733;52.668;6.860;2022-09-28T04:10:43;8.60;99.90
59857;DHT22;45733;52.668;6.860;2022-09-28T04:13:09;8.60;99.90
59857;DHT22;45733;52.668;6.860;2022-09-28T04:15:35;8.50;99.90
59857;DHT22;45733;52.668;6.860;2022-09-28T04:18:12;8.40;99.90
59857;DHT22;45733;52.668;6.860;2022-09-28T04:20:38;8.50;99.90
59857;DHT22;45733;52.668;6.860;2022-09-28T04:23:10;8.60;99.90
59857;DHT22;45733;52.668;6.860;2022-09-28T04:25:36;8.60;99.90
59857;DHT22;45733;52.668;6.860;2022-09-28T04:28:04;8.60;99.90
59857;DHT22;45733;52.668;6.860;2022-09-28T04:30:48;8.60;99.90
59857;DHT22;45733;52.668;6.860;2022-09-28T04:33:14;8.60;99.90
59857;DHT22;45733;52.668;6.860;2022-09-28T04:35:40;8.50;99.90
59857;DHT22;45733;52.668;6.860;2022-09-28T04:38:06;8.40;99.90
59857;DHT22;45733;52.668;6.860;2022-09-28T04:40:32;8.50;99.90
59857;DHT22;45733;52.668;6.860;2022-09-28T04:42:58;8.50;99.90
59857;DHT22;45733;52.668;6.860;2022-09-28T04:45:24;8.50;99.90
59857;DHT22;45733;52.668;6.860;2022-09-28T04:47:53;8.60;99.90
59857;DHT22;45733;52.668;6.860;2022-09-28T04:50:19;8.60;99.90
59857;DHT22;45733;52.668;6.860;2022-09-28T04:52:45;8.70;99.90
59857;DHT22;45733;52.668;6.860;2022-09-28T04:55:11;8.70;99.90
59857;DHT22;45733;52.668;6.860;2022-09-28T04:57:38;8.70;99.90
59857;DHT22;45733;52.668;6.860;2022-09-28T05:00:04;8.70;99.90
59857;DHT22;45733;52.668;6.860;2022-09-28T05:02:30;8.80;99.90
59857;DHT22;45733;52.668;6.860;2022-09-28T05:04:56;8.80;99.90
59857;DHT22;45733;52.668;6.860;2022-09-28T05:07:24;8.80;99.90
59857;DHT22;45733;52.668;6.860;2022-09-28T05:09:51;8.70;99.90
59857;DHT22;45733;52.668;6.860;2022-09-28T05:12:16;8.70;99.90
59857;DHT22;45733;52.668;6.860;2022-09-28T05:14:42;8.70;99.90
59857;DHT22;45733;52.668;6.860;2022-09-28T05:17:21;8.70;99.90
59857;DHT22;45733;52.668;6.860;2022-09-28T05:19:47;8.70;99.90
59857;DHT22;45733;52.668;6.860;2022-09-28T05:22:13;8.70;99.90
59857;DHT22;45733;52.668;6.860;2022-09-28T05:24:40;8.60;99.90
59857;DHT22;45733;52.668;6.860;2022-09-28T05:27:06;8.60;99.90
59857;DHT22;45733;52.668;6.860;2022-09-28T05:29:32;8.70;99.90
59857;DHT22;45733;52.668;6.860;2022-09-28T05:31:58;8.70;99.90
59857;DHT22;45733;52.668;6.860;2022-09-28T05:34:26;8.70;99.90
59857;DHT22;45733;52.668;6.860;2022-09-28T05:36:52;8.70;99.90
59857;DHT22;45733;52.668;6.860;2022-09-28T05:39:18;8.70;99.90
59857;DHT22;45733;52.668;6.860;2022-09-28T05:41:43;8.70;99.90
59857;DHT22;45733;52.668;6.860;2022-09-28T05:44:09;8.70;99.90
59857;DHT22;45733;52.668;6.860;2022-09-28T05:46:35;8.70;99.90
59857;DHT22;45733;52.668;6.860;2022-09-28T05:49:01;8.60;99.90
59857;DHT22;45733;52.668;6.860;2022-09-28T05:51:27;8.60;99.90
59857;DHT22;45733;52.668;6.860;2022-09-28T05:53:54;8.60;99.90
59857;DHT22;45733;52.668;6.860;2022-09-28T05:56:20;8.50;99.90
59857;DHT22;45733;52.668;6.860;2022-09-28T05:58:46;8.50;99.90
59857;DHT22;45733;52.668;6.860;2022-09-28T06:01:12;8.50;99.90
59857;DHT22;45733;52.668;6.860;2022-09-28T06:03:38;8.50;99.90
59857;DHT22;45733;52.668;6.860;2022-09-28T06:06:04;8.50;99.90
59857;DHT22;45733;52.668;6.860;2022-09-28T06:08:31;8.50;99.90
59857;DHT22;45733;52.668;6.860;2022-09-28T06:11:00;8.50;99.90
59857;DHT22;45733;52.668;6.860;2022-09-28T06:13:27;8.60;99.90
59857;DHT22;45733;52.668;6.860;2022-09-28T06:15:53;8.60;99.90
59857;DHT22;45733;52.668;6.860;2022-09-28T06:18:20;8.60;99.90
59857;DHT22;45733;52.668;6.860;2022-09-28T06:20:46;8.70;99.90
59857;DHT22;45733;52.668;6.860;2022-09-28T06:23:12;8.70;99.90
59857;DHT22;45733;52.668;6.860;2022-09-28T06:25:39;8.70;99.90
59857;DHT22;45733;52.668;6.860;2022-09-28T06:28:08;8.70;99.90
59857;DHT22;45733;52.668;6.860;2022-09-28T06:30:35;8.70;99.90
59857;DHT22;45733;52.668;6.860;2022-09-28T06:33:04;8.70;99.90
59857;DHT22;45733;52.668;6.860;2022-09-28T06:35:31;8.70;99.90
59857;DHT22;45733;52.668;6.860;2022-09-28T06:37:58;8.70;99.90
59857;DHT22;45733;52.668;6.860;2022-09-28T06:40:25;8.60;99.90
59857;DHT22;45733;52.668;6.860;2022-09-28T06:45:25;8.60;99.90
59857;DHT22;45733;52.668;6.860;2022-09-28T06:47:56;8.70;99.90
59857;DHT22;45733;52.668;6.860;2022-09-28T06:50:24;8.70;99.90
59857;DHT22;45733;52.668;6.860;2022-09-28T06:52:52;8.70;99.90
59857;DHT22;45733;52.668;6.860;2022-09-28T06:55:18;8.70;99.90
59857;DHT22;45733;52.668;6.860;2022-09-28T06:57:45;8.70;99.90
59857;DHT22;45733;52.668;6.860;2022-09-28T07:00:11;8.80;99.90
59857;DHT22;45733;52.668;6.860;2022-09-28T07:02:37;8.80;99.90
59857;DHT22;45733;52.668;6.860;2022-09-28T07:05:03;8.80;99.90
59857;DHT22;45733;52.668;6.860;2022-09-28T07:07:32;8.80;99.90
59857;DHT22;45733;52.668;6.860;2022-09-28T07:09:58;8.80;99.90
59857;DHT22;45733;52.668;6.860;2022-09-28T07:12:24;8.90;99.90
59857;DHT22;45733;52.668;6.860;2022-09-28T07:14:51;8.90;99.90
59857;DHT22;45733;52.668;6.860;2022-09-28T07:17:22;8.90;99.90
59857;DHT22;45733;52.668;6.860;2022-09-28T07:19:49;8.90;99.90
59857;DHT22;45733;52.668;6.860;2022-09-28T07:22:19;9.00;99.90
59857;DHT22;45733;52.668;6.860;2022-09-28T07:24:46;9.10;99.90
59857;DHT22;45733;52.668;6.860;2022-09-28T07:27:27;9.00;99.90
59857;DHT22;45733;52.668;6.860;2022-09-28T07:29:54;9.00;99.90
59857;DHT22;45733;52.668;6.860;2022-09-28T07:32:20;9.00;99.90
59857;DHT22;45733;52.668;6.860;2022-09-28T07:34:46;8.90;99.90
59857;DHT22;45733;52.668;6.860;2022-09-28T07:37:14;8.90;99.90
59857;DHT22;45733;52.668;6.860;2022-09-28T07:39:40;9.10;99.90
59857;DHT22;45733;52.668;6.860;2022-09-28T07:42:25;9.20;99.90
59857;DHT22;45733;52.668;6.860;2022-09-28T07:44:55;9.20;99.90
59857;DHT22;45733;52.668;6.860;2022-09-28T07:47:22;9.20;99.90
59857;DHT22;45733;52.668;6.860;2022-09-28T07:49:57;9.20;99.90
59857;DHT22;45733;52.668;6.860;2022-09-28T07:52:23;9.20;99.90
59857;DHT22;45733;52.668;6.860;2022-09-28T07:54:54;9.30;99.90
59857;DHT22;45733;52.668;6.860;2022-09-28T07:57:21;9.30;99.90
59857;DHT22;45733;52.668;6.860;2022-09-28T07:59:48;9.30;99.90
59857;DHT22;45733;52.668;6.860;2022-09-28T08:02:16;9.40;99.90
59857;DHT22;45733;52.668;6.860;2022-09-28T08:04:49;9.50;99.90
59857;DHT22;45733;52.668;6.860;2022-09-28T08:07:16;9.50;99.90
59857;DHT22;45733;52.668;6.860;2022-09-28T08:09:44;9.50;99.90
59857;DHT22;45733;52.668;6.860;2022-09-28T08:12:11;9.70;99.90
59857;DHT22;45733;52.668;6.860;2022-09-28T08:14:43;9.70;99.90
59857;DHT22;45733;52.668;6.860;2022-09-28T08:17:09;9.60;99.90
59857;DHT22;45733;52.668;6.860;2022-09-28T08:19:35;9.70;99.90
59857;DHT22;45733;52.668;6.860;2022-09-28T08:22:19;9.60;99.90
59857;DHT22;45733;52.668;6.860;2022-09-28T08:24:46;9.70;99.90
59857;DHT22;45733;52.668;6.860;2022-09-28T08:27:13;9.80;99.90
59857;DHT22;45733;52.668;6.860;2022-09-28T08:29:39;9.80;99.90
59857;DHT22;45733;52.668;6.860;2022-09-28T08:32:06;9.80;99.90
59857;DHT22;45733;52.668;6.860;2022-09-28T08:34:37;9.90;99.90
59857;DHT22;45733;52.668;6.860;2022-09-28T08:37:05;9.90;99.90
59857;DHT22;45733;52.668;6.860;2022-09-28T08:39:31;10.00;99.90
59857;DHT22;45733;52.668;6.860;2022-09-28T08:44:52;10.10;99.90
59857;DHT22;45733;52.668;6.860;2022-09-28T08:47:31;10.10;99.90
59857;DHT22;45733;52.668;6.860;2022-09-28T08:53:41;10.10;99.90
59857;DHT22;45733;52.668;6.860;2022-09-28T08:56:23;10.20;99.90
59857;DHT22;45733;52.668;6.860;2022-09-28T08:58:59;10.30;99.90
59857;DHT22;45733;52.668;6.860;2022-09-28T09:01:34;10.30;99.90
59857;DHT22;45733;52.668;6.860;2022-09-28T09:04:03;10.50;99.90
59857;DHT22;45733;52.668;6.860;2022-09-28T09:12:13;10.70;99.90
59857;DHT22;45733;52.668;6.860;2022-09-28T09:15:46;10.80;99.90
59857;DHT22;45733;52.668;6.860;2022-09-28T09:18:11;11.00;99.90
59857;DHT22;45733;52.668;6.860;2022-09-28T09:20:49;11.00;99.90
59857;DHT22;45733;52.668;6.860;2022-09-28T09:23:35;11.20;99.90
59857;DHT22;45733;52.668;6.860;2022-09-28T09:26:35;11.20;99.90
59857;DHT22;45733;52.668;6.860;2022-09-28T09:48:14;13.20;99.90
59857;DHT22;45733;52.668;6.860;2022-09-28T09:51:05;13.40;99.90
59857;DHT22;45733;52.668;6.860;2022-09-28T09:53:47;13.30;99.90
59857;DHT22;45733;52.668;6.860;2022-09-28T09:56:19;13.20;99.90
59857;DHT22;45733;52.668;6.860;2022-09-28T09:58:50;13.30;99.90
59857;DHT22;45733;52.668;6.860;2022-09-28T10:01:20;13.20;99.90
59857;DHT22;45733;52.668;6.860;2022-09-28T10:03:48;13.20;99.90
59857;DHT22;45733;52.668;6.860;2022-09-28T10:06:24;13.50;99.90
59857;DHT22;45733;52.668;6.860;2022-09-28T10:11:27;13.70;99.90
59857;DHT22;45733;52.668;6.860;2022-09-28T10:13:56;13.70;99.90
59857;DHT22;45733;52.668;6.860;2022-09-28T10:16:23;13.70;99.90
59857;DHT22;45733;52.668;6.860;2022-09-28T10:18:49;13.80;99.90
59857;DHT22;45733;52.668;6.860;2022-09-28T10:21:17;14.00;99.90
59857;DHT22;45733;52.668;6.860;2022-09-28T10:23:45;14.30;99.90
59857;DHT22;45733;52.668;6.860;2022-09-28T10:26:24;14.40;99.90
59857;DHT22;45733;52.668;6.860;2022-09-28T10:29:00;14.60;99.90
59857;DHT22;45733;52.668;6.860;2022-09-28T10:31:33;14.40;99.90
59857;DHT22;45733;52.668;6.860;2022-09-28T10:34:00;14.00;99.90
59857;DHT22;45733;52.668;6.860;2022-09-28T10:36:27;14.20;99.90
59857;DHT22;45733;52.668;6.860;2022-09-28T10:38:53;14.40;99.90
59857;DHT22;45733;52.668;6.860;2022-09-28T10:41:20;14.60;99.90
59857;DHT22;45733;52.668;6.860;2022-09-28T10:43:55;14.90;99.90
59857;DHT22;45733;52.668;6.860;2022-09-28T10:46:33;14.80;99.90
59857;DHT22;45733;52.668;6.860;2022-09-28T10:49:02;14.60;99.90
59857;DHT22;45733;52.668;6.860;2022-09-28T10:51:52;14.60;99.90
59857;DHT22;45733;52.668;6.860;2022-09-28T10:54:30;14.90;99.90
59857;DHT22;45733;52.668;6.860;2022-09-28T10:56:57;15.30;99.90
59857;DHT22;45733;52.668;6.860;2022-09-28T11:05:17;16.00;99.90
59857;DHT22;45733;52.668;6.860;2022-09-28T11:07:45;15.70;99.90
59857;DHT22;45733;52.668;6.860;2022-09-28T11:10:24;15.90;99.90
59857;DHT22;45733;52.668;6.860;2022-09-28T11:12:51;15.70;99.90
59857;DHT22;45733;52.668;6.860;2022-09-28T11:15:27;16.10;99.90
59857;DHT22;45733;52.668;6.860;2022-09-28T11:17:53;16.50;99.90
59857;DHT22;45733;52.668;6.860;2022-09-28T11:23:28;16.40;99.90
59857;DHT22;45733;52.668;6.860;2022-09-28T11:26:06;16.30;99.90
59857;DHT22;45733;52.668;6.860;2022-09-28T11:28:36;16.10;99.90
59857;DHT22;45733;52.668;6.860;2022-09-28T11:31:05;15.50;99.90
59857;DHT22;45733;52.668;6.860;2022-09-28T11:33:37;15.10;99.90
59857;DHT22;45733;52.668;6.860;2022-09-28T11:39:05;14.70;99.90
59857;DHT22;45733;52.668;6.860;2022-09-28T11:44:44;15.10;99.90
59857;DHT22;45733;52.668;6.860;2022-09-28T11:56:05;14.90;99.90
59857;DHT22;45733;52.668;6.860;2022-09-28T11:58:45;14.70;99.90
59857;DHT22;45733;52.668;6.860;2022-09-28T12:04:05;15.40;99.90
59857;DHT22;45733;52.668;6.860;2022-09-28T12:06:58;15.90;99.90
59857;DHT22;45733;52.668;6.860;2022-09-28T12:09:35;16.40;99.90
59857;DHT22;45733;52.668;6.860;2022-09-28T12:12:34;16.60;99.90
59857;DHT22;45733;52.668;6.860;2022-09-28T12:15:02;16.90;99.90
59857;DHT22;45733;52.668;6.860;2022-09-28T12:17:44;17.20;99.90
59857;DHT22;45733;52.668;6.860;2022-09-28T12:20:28;17.10;99.90
59857;DHT22;45733;52.668;6.860;2022-09-28T12:23:03;17.10;99.90
59857;DHT22;45733;52.668;6.860;2022-09-28T12:25:37;17.30;99.90
59857;DHT22;45733;52.668;6.860;2022-09-28T12:28:15;17.50;99.90
59857;DHT22;45733;52.668;6.860;2022-09-28T12:30:44;17.60;99.90
59857;DHT22;45733;52.668;6.860;2022-09-28T12:33:13;17.60;99.90
59857;DHT22;45733;52.668;6.860;2022-09-28T12:36:01;18.10;99.90
59857;DHT22;45733;52.668;6.860;2022-09-28T12:39:02;18.00;99.90
59857;DHT22;45733;52.668;6.860;2022-09-28T12:57:42;16.90;99.90
59857;DHT22;45733;52.668;6.860;2022-09-28T13:00:18;16.80;99.90
59857;DHT22;45733;52.668;6.860;2022-09-28T13:05:57;16.10;99.90
59857;DHT22;45733;52.668;6.860;2022-09-28T13:14:33;16.00;99.90
59857;DHT22;45733;52.668;6.860;2022-09-28T13:17:09;15.80;99.90
59857;DHT22;45733;52.668;6.860;2022-09-28T13:19:50;15.90;99.90
59857;DHT22;45733;52.668;6.860;2022-09-28T13:25:03;15.90;99.90
59857;DHT22;45733;52.668;6.860;2022-09-28T13:27:34;15.70;99.90
59857;DHT22;45733;52.668;6.860;2022-09-28T13:30:03;15.50;99.90
59857;DHT22;45733;52.668;6.860;2022-09-28T13:32:32;15.40;99.90
59857;DHT22;45733;52.668;6.860;2022-09-28T13:34:59;15.30;99.90
59857;DHT22;45733;52.668;6.860;2022-09-28T13:37:27;15.10;99.90
59857;DHT22;45733;52.668;6.860;2022-09-28T13:39:54;15.00;99.90
59857;DHT22;45733;52.668;6.860;2022-09-28T13:48:09;14.10;99.90
59857;DHT22;45733;52.668;6.860;2022-09-28T13:59:24;13.50;99.90
59857;DHT22;45733;52.668;6.860;2022-09-28T14:10:48;13.50;99.90
59857;DHT22;45733;52.668;6.860;2022-09-28T14:16:28;14.30;99.90
59857;DHT22;45733;52.668;6.860;2022-09-28T14:19:27;14.40;99.90
59857;DHT22;45733;52.668;6.860;2022-09-28T14:27:38;14.50;99.90
59857;DHT22;45733;52.668;6.860;2022-09-28T14:32:41;15.10;99.90
59857;DHT22;45733;52.668;6.860;2022-09-28T14:38:05;15.30;99.90
59857;DHT22;45733;52.668;6.860;2022-09-28T14:48:52;15.80;99.90
59857;DHT22;45733;52.668;6.860;2022-09-28T15:01:58;15.60;99.90
59857;DHT22;45733;52.668;6.860;2022-09-28T15:04:28;15.50;99.90
59857;DHT22;45733;52.668;6.860;2022-09-28T15:06:55;15.40;99.90
59857;DHT22;45733;52.668;6.860;2022-09-28T15:09:36;15.30;99.90
59857;DHT22;45733;52.668;6.860;2022-09-28T15:12:03;15.20;99.90
59857;DHT22;45733;52.668;6.860;2022-09-28T15:14:34;15.20;99.90
59857;DHT22;45733;52.668;6.860;2022-09-28T15:17:08;15.10;99.90
59857;DHT22;45733;52.668;6.860;2022-09-28T15:22:21;15.40;99.90
59857;DHT22;45733;52.668;6.860;2022-09-28T15:24:59;15.50;99.90
59857;DHT22;45733;52.668;6.860;2022-09-28T15:27:33;15.50;99.90
59857;DHT22;45733;52.668;6.860;2022-09-28T15:32:43;15.70;99.90
59857;DHT22;45733;52.668;6.860;2022-09-28T15:35:17;15.70;99.90
59857;DHT22;45733;52.668;6.860;2022-09-28T15:37:45;15.60;99.90
59857;DHT22;45733;52.668;6.860;2022-09-28T15:40:17;15.40;99.90
59857;DHT22;45733;52.668;6.860;2022-09-28T15:42:43;15.40;99.90
59857;DHT22;45733;52.668;6.860;2022-09-28T15:45:18;15.40;99.90
59857;DHT22;45733;52.668;6.860;2022-09-28T15:47:50;15.20;99.90
59857;DHT22;45733;52.668;6.860;2022-09-28T15:50:22;15.10;99.90
59857;DHT22;45733;52.668;6.860;2022-09-28T15:52:55;14.90;99.90
59857;DHT22;45733;52.668;6.860;2022-09-28T15:55:33;14.70;99.90
59857;DHT22;45733;52.668;6.860;2022-09-28T15:58:18;14.20;99.90
59857;DHT22;45733;52.668;6.860;2022-09-28T16:00:47;14.30;99.90
59857;DHT22;45733;52.668;6.860;2022-09-28T16:03:21;14.10;99.90
59857;DHT22;45733;52.668;6.860;2022-09-28T16:05:50;13.90;99.90
59857;DHT22;45733;52.668;6.860;2022-09-28T16:08:21;13.80;99.90
59857;DHT22;45733;52.668;6.860;2022-09-28T16:13:32;13.60;99.90
59857;DHT22;45733;52.668;6.860;2022-09-28T16:15:59;13.60;99.90
59857;DHT22;45733;52.668;6.860;2022-09-28T16:22:13;13.50;99.90
59857;DHT22;45733;52.668;6.860;2022-09-28T16:24:53;13.30;99.90
59857;DHT22;45733;52.668;6.860;2022-09-28T16:27:39;13.10;99.90
59857;DHT22;45733;52.668;6.860;2022-09-28T16:30:28;13.10;99.90
59857;DHT22;45733;52.668;6.860;2022-09-28T16:33:02;13.10;99.90
59857;DHT22;45733;52.668;6.860;2022-09-28T16:35:50;12.80;99.90
59857;DHT22;45733;52.668;6.860;2022-09-28T16:38:17;12.70;99.90
59857;DHT22;45733;52.668;6.860;2022-09-28T16:40:47;12.70;99.90
59857;DHT22;45733;52.668;6.860;2022-09-28T16:43:27;12.60;99.90
59857;DHT22;45733;52.668;6.860;2022-09-28T16:45:56;12.40;99.90
59857;DHT22;45733;52.668;6.860;2022-09-28T16:48:29;12.40;99.90
59857;DHT22;45733;52.668;6.860;2022-09-28T16:50:56;12.20;99.90
59857;DHT22;45733;52.668;6.860;2022-09-28T16:53:23;12.00;99.90
59857;DHT22;45733;52.668;6.860;2022-09-28T16:56:09;12.00;99.90
59857;DHT22;45733;52.668;6.860;2022-09-28T16:58:36;11.90;99.90
59857;DHT22;45733;52.668;6.860;2022-09-28T17:01:04;11.80;99.90
59857;DHT22;45733;52.668;6.860;2022-09-28T17:03:33;11.80;99.90
59857;DHT22;45733;52.668;6.860;2022-09-28T17:06:02;11.80;99.90
59857;DHT22;45733;52.668;6.860;2022-09-28T17:08:31;11.80;99.90
59857;DHT22;45733;52.668;6.860;2022-09-28T17:10:59;11.50;99.90
59857;DHT22;45733;52.668;6.860;2022-09-28T17:13:30;11.50;99.90
59857;DHT22;45733;52.668;6.860;2022-09-28T17:15:59;11.50;99.90
59857;DHT22;45733;52.668;6.860;2022-09-28T17:18:26;11.40;99.90
59857;DHT22;45733;52.668;6.860;2022-09-28T17:20:54;11.30;99.90
59857;DHT22;45733;52.668;6.860;2022-09-28T17:23:23;11.20;99.90
59857;DHT22;45733;52.668;6.860;2022-09-28T17:25:49;11.20;99.90
59857;DHT22;45733;52.668;6.860;2022-09-28T17:28:34;11.20;99.90
59857;DHT22;45733;52.668;6.860;2022-09-28T17:31:01;11.10;99.90
59857;DHT22;45733;52.668;6.860;2022-09-28T17:33:27;11.10;99.90
59857;DHT22;45733;52.668;6.860;2022-09-28T17:35:59;11.10;99.90
59857;DHT22;45733;52.668;6.860;2022-09-28T17:38:26;11.10;99.90
59857;DHT22;45733;52.668;6.860;2022-09-28T17:40:52;11.10;99.90
59857;DHT22;45733;52.668;6.860;2022-09-28T17:43:17;11.10;99.90
59857;DHT22;45733;52.668;6.860;2022-09-28T17:45:46;11.10;99.90
59857;DHT22;45733;52.668;6.860;2022-09-28T17:48:14;10.90;99.90
59857;DHT22;45733;52.668;6.860;2022-09-28T17:50:41;10.70;99.90
59857;DHT22;45733;52.668;6.860;2022-09-28T17:53:08;10.60;99.90
59857;DHT22;45733;52.668;6.860;2022-09-28T17:55:35;10.50;99.90
59857;DHT22;45733;52.668;6.860;2022-09-28T17:58:17;10.30;99.90
59857;DHT22;45733;52.668;6.860;2022-09-28T18:00:45;10.20;99.90
59857;DHT22;45733;52.668;6.860;2022-09-28T18:03:14;10.20;99.90
59857;DHT22;45733;52.668;6.860;2022-09-28T18:05:42;10.20;99.90
59857;DHT22;45733;52.668;6.860;2022-09-28T18:08:12;10.20;99.90
59857;DHT22;45733;52.668;6.860;2022-09-28T18:10:38;10.30;99.90
59857;DHT22;45733;52.668;6.860;2022-09-28T18:13:04;10.30;99.90
59857;DHT22;45733;52.668;6.860;2022-09-28T18:15:30;10.30;99.90
59857;DHT22;45733;52.668;6.860;2022-09-28T18:17:56;10.30;99.90
59857;DHT22;45733;52.668;6.860;2022-09-28T18:20:22;10.30;99.90
59857;DHT22;45733;52.668;6.860;2022-09-28T18:22:48;10.40;99.90
59857;DHT22;45733;52.668;6.860;2022-09-28T18:25:14;10.40;99.90
59857;DHT22;45733;52.668;6.860;2022-09-28T18:27:40;10.40;99.90
59857;DHT22;45733;52.668;6.860;2022-09-28T18:30:06;10.30;99.90
59857;DHT22;45733;52.668;6.860;2022-09-28T18:32:34;10.30;99.90
59857;DHT22;45733;52.668;6.860;2022-09-28T18:35:05;10.40;99.90
59857;DHT22;45733;52.668;6.860;2022-09-28T18:37:35;10.40;99.90
59857;DHT22;45733;52.668;6.860;2022-09-28T18:40:03;10.50;99.90
59857;DHT22;45733;52.668;6.860;2022-09-28T18:42:29;10.60;99.90
59857;DHT22;45733;52.668;6.860;2022-09-28T18:44:56;10.60;99.90
59857;DHT22;45733;52.668;6.860;2022-09-28T18:47:22;10.60;99.90
59857;DHT22;45733;52.668;6.860;2022-09-28T18:49:49;10.50;99.90
59857;DHT22;45733;52.668;6.860;2022-09-28T18:52:17;10.40;99.90
59857;DHT22;45733;52.668;6.860;2022-09-28T18:54:43;10.40;99.90
59857;DHT22;45733;52.668;6.860;2022-09-28T18:57:11;10.40;99.90
59857;DHT22;45733;52.668;6.860;2022-09-28T18:59:37;10.30;99.90
59857;DHT22;45733;52.668;6.860;2022-09-28T19:02:03;10.20;99.90
59857;DHT22;45733;52.668;6.860;2022-09-28T19:04:29;10.20;99.90
59857;DHT22;45733;52.668;6.860;2022-09-28T19:07:05;10.20;99.90
59857;DHT22;45733;52.668;6.860;2022-09-28T19:09:32;10.20;99.90
59857;DHT22;45733;52.668;6.860;2022-09-28T19:11:59;10.10;99.90
59857;DHT22;45733;52.668;6.860;2022-09-28T19:14:25;10.00;99.90
59857;DHT22;45733;52.668;6.860;2022-09-28T19:16:52;10.00;99.90
59857;DHT22;45733;52.668;6.860;2022-09-28T19:19:19;10.00;99.90
59857;DHT22;45733;52.668;6.860;2022-09-28T19:21:45;10.00;99.90
59857;DHT22;45733;52.668;6.860;2022-09-28T19:24:16;10.00;99.90
59857;DHT22;45733;52.668;6.860;2022-09-28T19:26:43;9.90;99.90
59857;DHT22;45733;52.668;6.860;2022-09-28T19:29:12;9.90;99.90